Time;durP1;ratioP1;P1;durP2;ratioP2;P2;SDS_P1;SDS_P2;PMS_P1;PMS_P2;Temp;Humidity;BMP_temperature;BMP_pressure;BME280_temperature;BME280_humidity;BME280_pressure;Samples;Min_cycle;Max_cycle;Signal;HPM_P1;HPM_P2
2022/11/08 00:03:42;;;;;;;16.70;4.70;;;12.00;99.90;;;;;;5036949;28;20041;-73
2022/11/08 00:14:24;;;;;;;21.08;4.75;;;12.00;99.90;;;;;;5036628;28;20370;-71
2022/11/08 00:16:49;;;;;;;21.15;4.88;;;12.00;99.90;;;;;;5018819;28;20033;-70
2022/11/08 00:19:15;;;;;;;20.40;5.22;;;12.00;99.90;;;;;;5021819;28;20045;-71
2022/11/08 00:21:41;;;;;;;18.83;5.22;;;12.10;99.90;;;;;;5033715;28;20044;-73
2022/11/08 00:24:06;;;;;;;18.20;4.95;;;12.10;99.90;;;;;;5056396;28;20052;-71
2022/11/08 00:26:32;;;;;;;16.10;5.25;;;12.10;99.90;;;;;;5056413;28;20102;-71
2022/11/08 00:28:58;;;;;;;21.63;5.03;;;12.10;99.90;;;;;;5056325;28;20175;-71
2022/11/08 00:31:23;;;;;;;12.98;4.75;;;12.10;99.90;;;;;;5056162;28;20431;-70
2022/11/08 00:33:49;;;;;;;18.17;4.80;;;12.10;99.90;;;;;;5055919;28;20052;-72
2022/11/08 00:36:15;;;;;;;19.83;4.70;;;12.10;99.90;;;;;;5037696;28;20063;-71
2022/11/08 00:38:42;;;;;;;15.88;4.78;;;12.10;99.90;;;;;;5046697;28;20033;-72
2022/11/08 00:41:11;;;;;;;19.20;5.20;;;12.10;99.90;;;;;;5055968;28;20037;-72
2022/11/08 00:43:37;;;;;;;20.98;4.68;;;12.10;99.90;;;;;;5055456;28;20047;-71
2022/11/08 00:46:02;;;;;;;19.13;4.63;;;12.10;99.90;;;;;;5038697;28;20049;-72
2022/11/08 00:48:28;;;;;;;19.50;5.15;;;12.00;99.90;;;;;;5055826;28;20043;-72
2022/11/08 00:50:54;;;;;;;22.67;4.97;;;12.00;99.90;;;;;;5056059;28;20473;-72
2022/11/08 00:53:22;;;;;;;16.02;4.97;;;12.00;99.90;;;;;;5037798;28;20461;-71
2022/11/08 00:55:48;;;;;;;19.40;5.57;;;12.00;99.90;;;;;;5055575;28;20048;-72
2022/11/08 00:58:13;;;;;;;16.65;4.97;;;11.90;99.90;;;;;;5037647;28;20128;-72
2022/11/08 01:00:39;;;;;;;20.15;4.68;;;12.00;99.90;;;;;;5037713;28;20053;-73
2022/11/08 01:03:20;;;;;;;18.77;4.80;;;11.90;99.90;;;;;;5037958;28;20350;-72
2022/11/08 01:05:47;;;;;;;24.50;5.25;;;11.90;99.90;;;;;;5038142;28;20407;-70
2022/11/08 01:08:13;;;;;;;19.48;5.00;;;11.90;99.90;;;;;;5038227;28;20377;-71
2022/11/08 01:10:44;;;;;;;17.73;4.90;;;11.90;99.90;;;;;;5055221;28;20044;-71
2022/11/08 01:13:10;;;;;;;18.83;5.30;;;12.00;99.90;;;;;;5037209;28;20041;-71
2022/11/08 01:15:41;;;;;;;20.02;4.90;;;11.90;99.90;;;;;;5055290;28;20102;-71
2022/11/08 01:18:08;;;;;;;15.80;5.03;;;11.90;99.90;;;;;;5019193;28;20048;-71
2022/11/08 01:20:41;;;;;;;20.17;4.47;;;11.80;99.90;;;;;;5055141;28;20424;-72
2022/11/08 01:23:08;;;;;;;13.10;4.25;;;11.80;99.90;;;;;;5037221;28;20049;-72
2022/11/08 01:25:39;;;;;;;17.42;4.32;;;11.70;99.90;;;;;;5037003;28;20041;-71
2022/11/08 01:28:05;;;;;;;16.85;5.15;;;11.70;99.90;;;;;;5017909;28;20103;-73
2022/11/08 01:30:30;;;;;;;20.02;5.32;;;11.60;99.90;;;;;;5001126;28;20038;-72
2022/11/08 01:32:56;;;;;;;12.85;4.13;;;11.60;99.90;;;;;;5001152;28;20053;-71
2022/11/08 01:35:22;;;;;;;14.48;4.43;;;11.50;99.90;;;;;;5050303;28;20434;-72
2022/11/08 01:37:47;;;;;;;15.13;4.57;;;11.40;99.90;;;;;;5046400;28;20065;-73
2022/11/08 01:40:13;;;;;;;13.35;4.60;;;11.60;99.90;;;;;;5054682;28;20041;-72
2022/11/08 01:42:38;;;;;;;16.02;4.45;;;11.30;99.90;;;;;;5054720;28;20052;-72
2022/11/08 01:45:07;;;;;;;15.23;4.50;;;11.30;99.90;;;;;;5054942;28;20048;-71
2022/11/08 01:47:32;;;;;;;18.92;4.47;;;11.30;99.90;;;;;;5054997;28;20037;-72
2022/11/08 01:50:06;;;;;;;16.08;4.38;;;11.30;99.90;;;;;;5054923;28;20375;-73
2022/11/08 01:52:34;;;;;;;;;;;11.30;99.90;;;;;;5054913;28;20032;-72
2022/11/08 01:55:12;;;;;;;13.68;4.00;;;11.40;99.90;;;;;;5054699;28;19920;-71
2022/11/08 01:57:50;;;;;;;16.65;5.35;;;11.30;99.90;;;;;;5054826;28;20059;-71
2022/11/08 02:00:17;;;;;;;18.08;4.97;;;11.30;99.90;;;;;;5054702;28;20120;-73
2022/11/08 02:02:46;;;;;;;17.08;5.07;;;11.30;99.90;;;;;;5037251;28;20056;-71
2022/11/08 02:05:24;;;;;;;20.60;5.10;;;11.30;99.90;;;;;;5054811;28;20082;-72
2022/11/08 02:07:56;;;;;;;22.15;4.60;;;11.30;99.90;;;;;;5054272;28;20048;-72
2022/11/08 02:10:27;;;;;;;14.52;4.45;;;11.30;99.90;;;;;;5054554;28;20532;-71
2022/11/08 02:12:56;;;;;;;15.25;4.38;;;11.30;99.90;;;;;;5054702;28;20037;-71
2022/11/08 02:15:24;;;;;;;17.00;4.57;;;11.20;99.90;;;;;;5036885;28;20453;-71
2022/11/08 02:17:50;;;;;;;16.20;4.75;;;11.20;99.90;;;;;;5054765;28;20167;-73
2022/11/08 02:20:16;;;;;;;20.38;5.57;;;11.20;99.90;;;;;;5020864;28;20448;-70
2022/11/08 02:22:53;;;;;;;18.27;4.82;;;11.10;99.90;;;;;;5054198;28;20037;-71
2022/11/08 02:25:18;;;;;;;16.50;5.13;;;11.10;99.90;;;;;;5054604;28;20391;-72
2022/11/08 02:27:44;;;;;;;16.48;4.35;;;11.10;99.90;;;;;;5037016;28;20120;-71
2022/11/08 02:30:09;;;;;;;15.80;5.00;;;11.10;99.90;;;;;;5057545;28;20102;-71
2022/11/08 02:32:38;;;;;;;16.55;4.85;;;11.10;99.90;;;;;;5058285;28;20080;-72
2022/11/08 02:35:07;;;;;;;16.23;4.75;;;11.00;99.90;;;;;;5022918;28;20457;-72
2022/11/08 02:37:33;;;;;;;18.23;5.00;;;11.00;99.90;;;;;;5044611;28;20488;-73
2022/11/08 02:39:58;;;;;;;15.50;4.65;;;11.00;99.90;;;;;;5058299;28;20040;-71
2022/11/08 02:42:24;;;;;;;17.48;5.10;;;11.20;99.90;;;;;;5058237;28;20045;-71
2022/11/08 02:44:50;;;;;;;17.88;4.97;;;10.90;99.90;;;;;;5058282;28;20033;-70
2022/11/08 02:47:15;;;;;;;18.23;4.88;;;10.90;99.90;;;;;;5040561;28;20041;-72
2022/11/08 02:49:41;;;;;;;20.58;5.35;;;10.90;99.90;;;;;;5040848;28;20102;-72
2022/11/08 02:52:07;;;;;;;15.05;4.68;;;11.00;99.90;;;;;;5057879;28;20052;-72
2022/11/08 02:54:33;;;;;;;20.30;5.10;;;10.90;99.90;;;;;;5039702;28;20087;-72
2022/11/08 02:56:58;;;;;;;15.35;4.63;;;10.80;99.90;;;;;;5058228;28;20033;-70
2022/11/08 02:59:24;;;;;;;19.17;4.47;;;10.80;99.90;;;;;;5044069;28;20102;-70
2022/11/08 03:01:49;;;;;;;17.40;4.95;;;10.80;99.90;;;;;;5038983;28;20052;-70
2022/11/08 03:04:15;;;;;;;17.10;4.78;;;10.70;99.90;;;;;;5042422;28;20072;-71
2022/11/08 03:06:41;;;;;;;16.55;5.25;;;10.70;99.90;;;;;;5037694;28;20038;-72
2022/11/08 03:09:06;;;;;;;17.30;4.88;;;10.90;99.90;;;;;;5042831;28;20079;-70
2022/11/08 03:11:32;;;;;;;18.65;5.05;;;10.70;99.90;;;;;;5037951;28;20045;-72
2022/11/08 03:13:57;;;;;;;24.63;5.32;;;10.70;99.90;;;;;;5037703;28;20041;-70
2022/11/08 03:16:23;;;;;;;17.00;5.43;;;10.70;99.90;;;;;;5037789;28;20420;-72
2022/11/08 03:18:49;;;;;;;19.90;4.72;;;10.80;99.90;;;;;;5036931;28;20037;-73
2022/11/08 03:21:14;;;;;;;18.98;5.13;;;10.70;99.90;;;;;;5020467;28;20049;-70
2022/11/08 03:23:40;;;;;;;18.42;5.00;;;10.70;99.90;;;;;;5040927;28;20033;-71
2022/11/08 03:26:06;;;;;;;18.95;4.90;;;10.70;99.90;;;;;;5020108;28;20037;-71
2022/11/08 03:28:32;;;;;;;15.32;4.85;;;10.70;99.90;;;;;;5037359;28;20114;-71
2022/11/08 03:30:57;;;;;;;17.17;4.57;;;11.20;99.90;;;;;;5036997;28;20522;-72
2022/11/08 03:33:23;;;;;;;20.45;5.15;;;10.70;99.90;;;;;;5037134;28;20129;-72
2022/11/08 03:35:49;;;;;;;15.32;4.57;;;10.70;99.90;;;;;;5056800;28;20049;-71
2022/11/08 03:38:15;;;;;;;18.33;4.82;;;10.60;99.90;;;;;;5044295;28;20041;-71
2022/11/08 03:40:41;;;;;;;17.00;5.20;;;10.60;99.90;;;;;;5056284;28;20033;-72
2022/11/08 03:43:07;;;;;;;14.45;5.03;;;10.60;99.90;;;;;;5057061;28;20090;-72
2022/11/08 03:45:33;;;;;;;15.00;4.63;;;10.50;99.90;;;;;;5039997;28;20029;-72
2022/11/08 03:47:59;;;;;;;16.38;5.38;;;10.60;99.90;;;;;;5057016;28;20040;-73
2022/11/08 03:50:24;;;;;;;15.32;4.90;;;10.60;99.90;;;;;;5056956;28;20449;-73
2022/11/08 03:52:55;;;;;;;13.55;4.68;;;10.60;99.90;;;;;;5038989;28;20041;-71
2022/11/08 03:55:24;;;;;;;17.38;5.00;;;10.60;99.90;;;;;;5056992;28;20036;-71
2022/11/08 03:57:50;;;;;;;15.70;5.10;;;10.50;99.90;;;;;;5057005;28;20424;-72
2022/11/08 04:00:19;;;;;;;14.68;4.90;;;10.70;99.90;;;;;;5039183;28;20068;-72
2022/11/08 04:02:44;;;;;;;16.92;5.13;;;10.50;99.90;;;;;;5039096;28;20041;-72
2022/11/08 04:05:11;;;;;;;15.18;4.78;;;10.60;99.90;;;;;;5056784;28;20106;-71
2022/11/08 04:07:38;;;;;;;14.65;4.57;;;10.60;99.90;;;;;;5056438;28;20048;-71
2022/11/08 04:10:08;;;;;;;15.45;5.32;;;10.50;99.90;;;;;;5056783;28;20036;-73
2022/11/08 04:15:22;;;;;;;13.02;5.13;;;10.50;99.90;;;;;;5038949;28;20045;-72
2022/11/08 04:23:23;;;;;;;15.45;5.25;;;10.40;99.90;;;;;;5055542;28;20081;-71
2022/11/08 04:25:57;;;;;;;12.27;5.20;;;10.50;99.90;;;;;;5038518;28;20064;-70
2022/11/08 04:28:25;;;;;;;21.60;6.05;;;10.40;99.90;;;;;;5055981;28;20043;-71
2022/11/08 04:30:55;;;;;;;13.43;4.78;;;10.40;99.90;;;;;;5056248;28;20037;-73
2022/11/08 04:33:21;;;;;;;26.70;6.20;;;10.30;99.90;;;;;;5038445;28;20160;-72
2022/11/08 04:35:47;;;;;;;18.30;5.40;;;10.30;99.90;;;;;;5030668;28;20052;-73
2022/11/08 04:38:13;;;;;;;24.63;5.97;;;10.30;99.90;;;;;;5046989;28;20053;-72
2022/11/08 04:40:39;;;;;;;16.65;5.13;;;10.30;99.90;;;;;;5036197;28;20357;-73
2022/11/08 04:43:04;;;;;;;15.88;5.20;;;10.30;99.90;;;;;;5036102;28;20038;-72
2022/11/08 04:45:30;;;;;;;12.38;4.65;;;10.30;99.90;;;;;;5036293;28;20392;-71
2022/11/08 04:47:55;;;;;;;17.35;4.93;;;10.40;99.90;;;;;;5018406;28;20037;-72
2022/11/08 04:50:21;;;;;;;14.20;4.90;;;10.30;99.90;;;;;;5035769;28;20041;-72
2022/11/08 04:52:52;;;;;;;17.33;4.90;;;10.50;99.90;;;;;;5045412;28;20056;-72
2022/11/08 04:55:18;;;;;;;15.93;5.60;;;10.40;99.90;;;;;;5035864;28;20041;-72
2022/11/08 04:57:44;;;;;;;13.57;4.57;;;10.40;99.90;;;;;;5035783;28;20053;-70
2022/11/08 05:00:10;;;;;;;13.85;4.80;;;10.50;99.90;;;;;;5044032;28;20033;-70
2022/11/08 05:02:36;;;;;;;14.52;4.35;;;10.50;99.90;;;;;;5055919;28;20106;-72
2022/11/08 05:05:01;;;;;;;14.77;4.78;;;10.60;99.90;;;;;;5056252;28;20045;-72
2022/11/08 05:07:30;;;;;;;15.07;4.63;;;10.50;99.90;;;;;;5037657;28;20440;-71
2022/11/08 05:10:02;;;;;;;12.13;4.07;;;10.50;99.90;;;;;;5020403;28;20076;-71
2022/11/08 05:12:28;;;;;;;13.07;4.68;;;10.40;99.90;;;;;;5052612;28;20091;-72
2022/11/08 05:14:54;;;;;;;16.27;4.38;;;10.40;99.90;;;;;;5055069;28;20087;-74
2022/11/08 05:17:20;;;;;;;19.08;4.65;;;10.40;99.90;;;;;;5042415;28;20055;-71
2022/11/08 05:25:14;;;;;;;15.57;4.47;;;10.30;99.90;;;;;;5035400;28;20061;-72
2022/11/08 05:27:40;;;;;;;14.45;3.92;;;10.20;99.90;;;;;;5035291;28;20041;-71
2022/11/08 05:30:07;;;;;;;18.40;4.80;;;10.20;99.90;;;;;;5035077;28;20396;-72
2022/11/08 05:32:33;;;;;;;12.48;4.35;;;10.20;99.90;;;;;;5017538;28;20033;-71
2022/11/08 05:34:58;;;;;;;12.60;4.28;;;10.10;99.90;;;;;;5035324;28;20419;-71
2022/11/08 05:37:24;;;;;;;15.10;5.25;;;10.10;99.90;;;;;;5017876;28;20124;-72
2022/11/08 05:39:49;;;;;;;9.27;4.03;;;10.70;99.90;;;;;;5034740;28;20121;-72
2022/11/08 05:42:15;;;;;;;10.30;3.95;;;10.10;99.90;;;;;;5031193;28;20048;-70
2022/11/08 05:44:41;;;;;;;12.85;4.68;;;10.20;99.90;;;;;;5047478;28;20045;-72
2022/11/08 05:47:06;;;;;;;14.13;4.60;;;10.20;99.90;;;;;;5054749;28;20368;-72
2022/11/08 05:49:32;;;;;;;11.80;4.30;;;10.20;99.90;;;;;;5055457;28;20041;-71
2022/11/08 05:51:57;;;;;;;8.40;3.80;;;10.40;99.90;;;;;;5055238;28;20388;-70
2022/11/08 05:54:23;;;;;;;9.75;3.95;;;10.20;99.90;;;;;;5054411;28;20067;-71
2022/11/08 05:56:49;;;;;;;14.05;4.43;;;10.20;99.90;;;;;;5055072;28;20052;-69
2022/11/08 05:59:15;;;;;;;11.10;3.92;;;10.20;99.90;;;;;;5054922;28;20321;-70
2022/11/08 06:01:40;;;;;;;15.50;4.40;;;10.20;99.90;;;;;;5036925;28;20048;-67
2022/11/08 06:04:06;;;;;;;13.63;4.30;;;10.20;99.90;;;;;;5034367;28;20053;-68
2022/11/08 06:06:31;;;;;;;16.58;4.50;;;10.10;99.90;;;;;;5034917;28;20073;-68
2022/11/08 06:08:57;;;;;;;13.43;4.25;;;10.10;99.90;;;;;;5035375;28;20041;-68
2022/11/08 06:11:25;;;;;;;13.38;4.05;;;10.10;99.90;;;;;;5035213;28;20068;-68
2022/11/08 06:13:51;;;;;;;13.02;3.90;;;10.10;99.90;;;;;;5018235;28;20404;-70
2022/11/08 06:16:18;;;;;;;12.93;3.83;;;10.00;99.90;;;;;;5033304;28;20049;-70
2022/11/08 06:18:44;;;;;;;10.65;3.80;;;10.00;99.90;;;;;;5037153;28;20049;-70
2022/11/08 06:21:13;;;;;;;10.88;3.63;;;10.00;99.90;;;;;;5054780;28;20342;-72
2022/11/08 06:23:39;;;;;;;11.00;3.90;;;10.00;99.90;;;;;;5054720;28;20065;-70
2022/11/08 06:26:05;;;;;;;13.80;4.10;;;10.00;99.90;;;;;;5037533;28;20103;-70
2022/11/08 06:28:31;;;;;;;15.85;3.92;;;10.00;99.90;;;;;;5054611;28;20045;-71
2022/11/08 06:31:00;;;;;;;10.43;3.97;;;9.90;99.90;;;;;;5038207;28;20041;-72
2022/11/08 06:33:26;;;;;;;11.63;3.75;;;9.90;99.90;;;;;;5034505;28;20064;-69
2022/11/08 06:35:52;;;;;;;11.75;3.63;;;9.90;99.90;;;;;;5034627;28;20049;-71
2022/11/08 06:38:17;;;;;;;10.80;3.47;;;10.00;99.90;;;;;;5016651;28;20045;-71
2022/11/08 06:40:43;;;;;;;12.30;4.03;;;10.00;99.90;;;;;;5034864;28;20048;-70
2022/11/08 06:43:10;;;;;;;13.35;3.83;;;10.00;99.90;;;;;;5034638;28;20061;-70
2022/11/08 06:45:36;;;;;;;13.73;4.30;;;10.00;99.90;;;;;;5044447;28;20448;-70
2022/11/08 06:48:04;;;;;;;12.77;4.22;;;10.00;99.90;;;;;;5054454;28;20041;-70
2022/11/08 06:50:30;;;;;;;24.85;4.50;;;10.00;99.90;;;;;;5054635;28;20182;-71
2022/11/08 06:53:01;;;;;;;11.73;4.38;;;10.10;99.90;;;;;;5054412;28;20055;-70
2022/11/08 06:55:27;;;;;;;10.77;3.78;;;10.10;99.90;;;;;;5054238;28;20117;-70
2022/11/08 06:57:53;;;;;;;10.38;4.30;;;10.10;99.90;;;;;;5054329;28;20369;-70
2022/11/08 07:00:19;;;;;;;16.77;4.72;;;10.10;99.90;;;;;;5054296;28;20044;-70
2022/11/08 07:02:45;;;;;;;13.45;4.05;;;10.10;99.90;;;;;;5048725;28;20424;-70
2022/11/08 07:05:11;;;;;;;11.70;4.20;;;10.20;99.90;;;;;;5034484;28;20061;-72
2022/11/08 07:07:37;;;;;;;12.13;4.50;;;10.20;99.90;;;;;;5034395;28;20057;-72
2022/11/08 07:10:04;;;;;;;11.38;4.40;;;10.20;99.90;;;;;;5034232;28;20033;-72
2022/11/08 07:12:30;;;;;;;11.63;4.55;;;10.30;99.90;;;;;;5034353;28;20058;-72
2022/11/08 07:14:55;;;;;;;13.45;4.38;;;10.30;99.90;;;;;;5034442;28;20067;-72
2022/11/08 07:17:21;;;;;;;11.48;4.50;;;10.30;99.90;;;;;;5037570;28;20361;-71
2022/11/08 07:19:47;;;;;;;12.68;4.47;;;10.40;99.90;;;;;;5037796;28;20114;-71
2022/11/08 07:22:12;;;;;;;9.57;4.40;;;10.50;99.90;;;;;;5056892;28;20051;-72
2022/11/08 07:24:41;;;;;;;14.48;4.68;;;10.40;99.90;;;;;;5057508;28;20429;-72
2022/11/08 07:27:06;;;;;;;10.68;4.32;;;10.40;99.90;;;;;;5057416;28;20365;-72
2022/11/08 07:29:32;;;;;;;10.10;4.40;;;10.50;99.90;;;;;;5057731;28;20037;-72
2022/11/08 07:31:57;;;;;;;14.20;4.57;;;10.50;99.90;;;;;;5039884;28;20408;-72
2022/11/08 07:34:23;;;;;;;11.60;4.03;;;10.50;99.90;;;;;;5057559;28;20591;-71
2022/11/08 07:36:48;;;;;;;9.88;4.00;;;10.60;99.90;;;;;;5056737;28;20345;-73
2022/11/08 07:39:14;;;;;;;10.32;4.07;;;10.60;99.90;;;;;;5057304;28;20145;-71
2022/11/08 07:41:40;;;;;;;8.23;3.40;;;10.70;99.90;;;;;;5039749;28;20048;-71
2022/11/08 07:44:05;;;;;;;11.68;3.63;;;10.70;99.90;;;;;;5057277;28;20068;-72
2022/11/08 07:46:31;;;;;;;13.15;3.85;;;10.70;99.90;;;;;;5057386;28;20110;-71
2022/11/08 07:48:57;;;;;;;13.52;3.80;;;10.80;99.90;;;;;;5057358;28;20076;-71
2022/11/08 07:51:22;;;;;;;16.85;3.75;;;10.90;99.90;;;;;;5022945;28;20037;-71
2022/11/08 07:53:48;;;;;;;10.85;3.85;;;10.90;99.90;;;;;;5037039;28;20125;-71
2022/11/08 07:56:13;;;;;;;10.85;3.72;;;11.00;99.90;;;;;;5019514;28;20124;-71
2022/11/08 07:58:39;;;;;;;10.57;4.10;;;11.20;99.90;;;;;;5019549;28;20053;-72
2022/11/08 08:01:05;;;;;;;9.27;3.40;;;11.10;99.90;;;;;;5036884;28;20045;-72
2022/11/08 08:03:31;;;;;;;10.73;4.18;;;11.10;99.90;;;;;;5037287;28;20037;-71
2022/11/08 08:05:57;;;;;;;11.07;4.22;;;11.10;99.90;;;;;;5051277;28;20032;-72
2022/11/08 08:08:26;;;;;;;9.02;3.67;;;11.10;99.90;;;;;;5022307;28;20064;-71
2022/11/08 08:10:55;;;;;;;9.75;3.13;;;11.20;99.90;;;;;;5056773;28;20107;-73
2022/11/08 08:13:21;;;;;;;9.57;3.42;;;11.20;99.90;;;;;;5038937;28;20045;-72
2022/11/08 08:15:47;;;;;;;8.05;3.03;;;11.20;99.90;;;;;;5056925;28;20364;-73
2022/11/08 08:18:12;;;;;;;9.63;3.30;;;11.20;99.90;;;;;;5056879;28;20334;-72
2022/11/08 08:20:41;;;;;;;11.07;3.25;;;11.30;99.90;;;;;;5039060;28;20041;-71
2022/11/08 08:23:06;;;;;;;10.20;3.72;;;11.40;99.90;;;;;;5037858;28;20192;-72
2022/11/08 08:25:32;;;;;;;7.07;3.03;;;11.40;99.90;;;;;;5019847;28;20480;-72
2022/11/08 08:27:59;;;;;;;7.90;3.05;;;11.40;99.90;;;;;;5018494;28;20129;-72
2022/11/08 08:30:25;;;;;;;8.23;3.15;;;11.40;99.90;;;;;;5036429;28;20052;-73
2022/11/08 08:32:59;;;;;;;7.20;2.70;;;11.50;99.90;;;;;;5036186;28;20053;-72
2022/11/08 08:35:25;;;;;;;6.80;3.00;;;11.50;99.90;;;;;;5002685;28;20057;-72
2022/11/08 08:37:50;;;;;;;7.20;3.22;;;11.50;99.90;;;;;;5037827;28;20068;-71
2022/11/08 08:40:18;;;;;;;9.80;2.90;;;11.60;99.90;;;;;;5056267;28;20112;-71
2022/11/08 08:42:44;;;;;;;6.88;2.65;;;11.60;99.90;;;;;;5056176;28;20124;-72
2022/11/08 08:45:10;;;;;;;7.53;2.45;;;11.90;99.90;;;;;;5056239;28;20120;-71
2022/11/08 08:47:35;;;;;;;11.48;3.20;;;11.60;99.90;;;;;;5056195;28;20110;-72
2022/11/08 08:50:01;;;;;;;6.03;2.58;;;11.60;99.90;;;;;;5056457;28;20069;-73
2022/11/08 08:52:27;;;;;;;6.07;2.47;;;11.70;99.90;;;;;;5055294;28;20396;-72
2022/11/08 08:54:52;;;;;;;7.57;2.70;;;11.80;99.90;;;;;;5035871;28;20103;-73
2022/11/08 08:57:18;;;;;;;5.90;2.33;;;11.90;99.90;;;;;;5036045;28;20033;-72
2022/11/08 08:59:43;;;;;;;7.03;2.53;;;11.90;99.90;;;;;;5036228;28;20095;-73
2022/11/08 09:02:10;;;;;;;7.45;2.35;;;12.00;99.90;;;;;;5035819;28;20124;-72
2022/11/08 09:04:36;;;;;;;6.60;2.60;;;12.20;99.90;;;;;;5035743;28;20049;-73
2022/11/08 09:07:02;;;;;;;8.20;2.85;;;12.10;99.90;;;;;;5035782;28;20034;-72
2022/11/08 09:09:27;;;;;;;8.10;2.50;;;12.10;99.90;;;;;;5037867;28;20053;-73
2022/11/08 09:11:53;;;;;;;7.20;3.00;;;12.10;99.90;;;;;;5056005;28;20049;-71
2022/11/08 09:14:18;;;;;;;5.60;2.75;;;12.20;99.90;;;;;;5055752;28;20056;-72
2022/11/08 09:16:44;;;;;;;6.10;2.70;;;12.30;99.90;;;;;;5055793;28;20418;-72
2022/11/08 09:19:10;;;;;;;6.43;2.35;;;12.30;99.90;;;;;;5037991;28;20049;-73
2022/11/08 09:21:35;;;;;;;7.93;2.45;;;12.40;99.90;;;;;;5038014;28;20518;-72
2022/11/08 09:24:01;;;;;;;6.90;2.40;;;12.50;99.90;;;;;;5054165;28;20464;-73
2022/11/08 09:26:26;;;;;;;6.30;2.50;;;12.60;99.90;;;;;;5018220;28;20457;-72
2022/11/08 09:28:52;;;;;;;5.55;2.50;;;12.60;99.90;;;;;;5035723;28;20048;-72
2022/11/08 09:31:18;;;;;;;6.53;2.75;;;12.90;99.90;;;;;;5035490;28;20124;-72
2022/11/08 09:33:43;;;;;;;5.68;2.58;;;12.70;99.90;;;;;;5035143;28;20461;-72
2022/11/08 09:36:12;;;;;;;6.05;2.35;;;12.70;99.90;;;;;;5035221;28;20049;-72
2022/11/08 09:38:38;;;;;;;8.30;2.70;;;12.80;99.90;;;;;;5035026;28;20060;-72
2022/11/08 09:41:16;;;;;;;7.00;2.60;;;12.90;99.90;;;;;;5035104;28;20042;-72
2022/11/08 09:44:14;;;;;;;6.65;2.60;;;13.00;99.90;;;;;;5017603;28;20033;-72
2022/11/08 09:46:56;;;;;;;5.63;2.90;;;13.00;99.90;;;;;;4991277;28;20053;-72
2022/11/08 09:49:36;;;;;;;4.70;2.53;;;13.10;99.90;;;;;;5017847;28;20061;-72
2022/11/08 09:52:04;;;;;;;7.57;2.65;;;13.20;99.90;;;;;;5035194;28;20037;-72
2022/11/08 09:54:40;;;;;;;7.22;2.50;;;13.20;99.90;;;;;;5034909;28;20115;-72
2022/11/08 09:57:18;;;;;;;5.93;2.60;;;13.20;99.90;;;;;;5039244;28;20471;-72
2022/11/08 09:59:49;;;;;;;6.25;2.70;;;13.30;99.90;;;;;;5054797;28;20049;-73
2022/11/08 10:02:20;;;;;;;7.90;2.67;;;13.30;99.90;;;;;;5054922;28;20045;-74
2022/11/08 10:05:11;;;;;;;5.50;2.50;;;13.40;99.90;;;;;;5054940;28;20060;-72
2022/11/08 10:08:18;;;;;;;7.63;2.63;;;13.40;99.90;;;;;;5055077;28;20040;-71
2022/11/08 10:11:12;;;;;;;5.97;2.60;;;13.50;99.90;;;;;;5037046;28;20053;-71
2022/11/08 10:14:27;;;;;;;6.60;2.42;;;13.60;99.90;;;;;;5051768;28;20137;-73
2022/11/08 10:17:23;;;;;;;7.63;2.90;;;13.60;99.90;;;;;;5017589;28;20529;-72
2022/11/08 10:20:10;;;;;;;9.15;2.75;;;13.70;99.90;;;;;;5034604;28;20049;-72
2022/11/08 10:22:45;;;;;;;6.55;2.60;;;13.70;99.90;;;;;;5034836;28;20042;-72
2022/11/08 10:25:19;;;;;;;5.53;2.53;;;13.70;99.90;;;;;;5034614;28;20485;-73
2022/11/08 10:27:44;;;;;;;5.43;2.38;;;13.80;99.90;;;;;;5035077;28;20323;-71
2022/11/08 10:30:19;;;;;;;9.27;2.90;;;13.80;99.90;;;;;;5034003;28;20106;-72
2022/11/08 10:32:49;;;;;;;8.32;2.30;;;13.80;99.90;;;;;;5054148;28;20395;-71
2022/11/08 10:35:24;;;;;;;6.63;2.33;;;13.80;99.90;;;;;;5036998;28;20433;-72
2022/11/08 10:37:53;;;;;;;8.38;2.60;;;13.80;99.90;;;;;;5054615;28;20049;-71
2022/11/08 10:40:32;;;;;;;6.32;2.38;;;14.00;99.90;;;;;;5054008;28;20354;-72
2022/11/08 10:43:33;;;;;;;5.20;2.50;;;13.90;99.90;;;;;;5052818;28;20056;-72
2022/11/08 10:45:58;;;;;;;7.85;2.80;;;14.00;99.90;;;;;;5023764;28;20049;-73
2022/11/08 10:48:27;;;;;;;7.35;2.40;;;14.00;99.90;;;;;;5034708;28;20046;-71
2022/11/08 10:50:54;;;;;;;5.03;2.47;;;14.10;99.90;;;;;;5037426;28;20045;-72
2022/11/08 10:53:29;;;;;;;7.32;2.67;;;14.00;99.90;;;;;;5020588;28;20045;-72
2022/11/08 10:56:03;;;;;;;6.18;2.58;;;14.00;99.90;;;;;;5038137;28;20045;-72
2022/11/08 10:58:36;;;;;;;6.38;2.60;;;13.90;99.90;;;;;;5028567;28;20040;-72
2022/11/08 11:01:12;;;;;;;5.85;2.53;;;13.90;99.90;;;;;;5057822;28;20175;-72
2022/11/08 11:03:37;;;;;;;6.65;2.45;;;13.90;99.90;;;;;;5058204;28;20041;-72
2022/11/08 11:06:20;;;;;;;6.78;2.65;;;13.80;99.90;;;;;;5041296;28;20083;-72
2022/11/08 11:09:03;;;;;;;5.68;2.45;;;13.70;99.90;;;;;;5057947;28;20040;-72
2022/11/08 11:11:31;;;;;;;5.70;2.78;;;13.80;99.90;;;;;;5057911;28;20415;-73
2022/11/08 11:14:20;;;;;;;8.23;2.63;;;13.70;99.90;;;;;;5043881;28;20046;-72
2022/11/08 11:17:02;;;;;;;5.88;2.38;;;13.60;99.90;;;;;;5038347;28;20083;-72
2022/11/08 11:19:28;;;;;;;8.52;2.60;;;13.60;99.90;;;;;;5037836;28;20037;-72
2022/11/08 11:22:06;;;;;;;5.95;2.72;;;13.60;99.90;;;;;;5037973;28;20041;-71
2022/11/08 11:24:45;;;;;;;5.10;2.40;;;13.60;99.90;;;;;;5020640;28;20060;-72
2022/11/08 11:27:32;;;;;;;7.18;2.97;;;13.70;99.90;;;;;;5038950;28;20045;-73
2022/11/08 11:30:22;;;;;;;5.57;2.10;;;13.80;99.90;;;;;;5057418;28;20045;-74
2022/11/08 11:33:04;;;;;;;5.90;2.22;;;13.90;99.90;;;;;;5057123;28;20380;-71
2022/11/08 11:35:44;;;;;;;6.10;2.38;;;14.00;99.90;;;;;;5057626;28;20057;-73
2022/11/08 11:38:21;;;;;;;4.18;2.10;;;14.10;99.90;;;;;;5057504;28;20429;-72
2022/11/08 11:40:49;;;;;;;5.07;2.13;;;14.20;99.90;;;;;;5056964;28;20095;-72
2022/11/08 11:43:34;;;;;;;4.28;2.10;;;14.30;99.90;;;;;;5045049;28;20101;-73
2022/11/08 11:46:21;;;;;;;6.90;2.30;;;14.30;99.90;;;;;;5037815;28;20116;-72
2022/11/08 11:48:58;;;;;;;5.05;2.40;;;14.30;99.90;;;;;;5057595;28;20151;-72
2022/11/08 11:51:27;;;;;;;6.30;2.45;;;14.30;99.90;;;;;;5057531;28;20091;-72
2022/11/08 11:53:53;;;;;;;7.68;2.08;;;14.30;99.90;;;;;;5057174;28;20049;-72
2022/11/08 11:56:39;;;;;;;5.53;2.10;;;14.70;99.90;;;;;;5056993;28;20357;-73
2022/11/08 11:59:39;;;;;;;7.82;2.58;;;14.50;99.90;;;;;;5052652;28;20072;-73
2022/11/08 12:02:40;;;;;;;4.88;2.15;;;14.50;99.90;;;;;;5036506;28;20049;-71
2022/11/08 12:05:18;;;;;;;6.80;2.20;;;14.60;99.90;;;;;;5036931;28;20042;-72
2022/11/08 12:08:20;;;;;;;8.55;2.55;;;14.70;99.90;;;;;;5019553;28;20111;-72
2022/11/08 12:11:02;;;;;;;6.07;2.97;;;14.60;99.90;;;;;;5020187;28;20064;-73
2022/11/08 12:14:07;;;;;;;5.53;2.33;;;14.60;99.90;;;;;;5020722;28;20081;-72
2022/11/08 12:16:43;;;;;;;7.30;2.10;;;14.70;99.90;;;;;;5056599;28;20170;-72
2022/11/08 12:19:20;;;;;;;6.03;2.53;;;14.70;99.90;;;;;;5056727;28;20052;-72
2022/11/08 12:22:33;;;;;;;5.80;2.33;;;14.70;99.90;;;;;;5056655;28;20049;-72
2022/11/08 12:25:22;;;;;;;9.18;2.38;;;14.70;99.90;;;;;;5031526;28;20064;-73
2022/11/08 12:28:16;;;;;;;5.75;2.30;;;14.70;99.90;;;;;;5056476;28;20464;-73
2022/11/08 12:30:56;;;;;;;5.25;2.05;;;14.70;99.90;;;;;;5056727;28;20045;-72
2022/11/08 12:33:36;;;;;;;5.05;2.10;;;14.70;99.90;;;;;;5056448;28;20140;-72
2022/11/08 12:36:13;;;;;;;5.95;2.13;;;14.60;99.90;;;;;;5056672;28;20057;-72
2022/11/08 12:39:09;;;;;;;6.97;2.38;;;14.70;99.90;;;;;;5056231;28;20102;-73
2022/11/08 12:41:38;;;;;;;6.75;2.08;;;14.70;99.90;;;;;;5056379;28;20143;-73
2022/11/08 12:44:25;;;;;;;4.07;2.03;;;14.60;99.90;;;;;;5045205;28;20089;-72
2022/11/08 12:47:19;;;;;;;6.90;2.38;;;14.60;99.90;;;;;;5018724;28;20061;-73
2022/11/08 12:49:50;;;;;;;5.35;2.15;;;14.70;99.90;;;;;;5018636;28;20041;-73
2022/11/08 12:53:03;;;;;;;5.85;2.05;;;14.70;99.90;;;;;;5035918;28;20057;-72
2022/11/08 12:55:35;;;;;;;8.00;2.38;;;14.70;99.90;;;;;;5025580;28;20053;-73
2022/11/08 12:58:07;;;;;;;6.28;2.22;;;14.60;99.90;;;;;;5036073;28;20045;-72
2022/11/08 13:00:36;;;;;;;6.28;2.40;;;14.70;99.90;;;;;;5026400;28;20029;-71
2022/11/08 13:03:23;;;;;;;8.63;2.50;;;14.70;99.90;;;;;;5055867;28;20411;-73
2022/11/08 13:06:06;;;;;;;5.60;2.05;;;15.00;99.90;;;;;;5055813;28;20045;-74
2022/11/08 13:09:04;;;;;;;4.47;2.03;;;14.70;99.90;;;;;;5055677;28;20045;-72
2022/11/08 13:11:35;;;;;;;5.15;1.98;;;14.80;99.90;;;;;;5054798;28;20151;-73
2022/11/08 13:14:01;;;;;;;7.50;2.22;;;14.80;99.90;;;;;;5055676;28;20440;-72
2022/11/08 13:16:40;;;;;;;6.70;1.98;;;14.70;99.90;;;;;;5041826;28;20041;-72
2022/11/08 13:19:28;;;;;;;6.72;2.00;;;14.80;99.90;;;;;;5044353;28;20136;-73
2022/11/08 13:21:54;;;;;;;4.68;2.17;;;14.80;99.90;;;;;;5035747;28;20356;-73